createdAt,value
2022-10-05T00:00:31.439Z,59.50
2022-10-05T00:03:10.833Z,59.40
2022-10-05T00:05:41.041Z,59.50
2022-10-05T00:08:12.584Z,59.60
2022-10-05T00:10:41.519Z,59.80
2022-10-05T00:13:37.858Z,59.70
2022-10-05T00:16:12.120Z,60.70
2022-10-05T00:18:44.874Z,59.60
2022-10-05T00:21:28.902Z,59.70
2022-10-05T00:24:00.660Z,60.40
2022-10-05T00:26:33.151Z,60.10
2022-10-05T00:29:20.606Z,60.20
2022-10-05T00:31:47.916Z,60.20
2022-10-05T00:34:15.823Z,60.10
2022-10-05T00:36:43.762Z,60.10
2022-10-05T00:39:19.889Z,60.10
2022-10-05T00:42:34.792Z,60.10
2022-10-05T00:45:24.231Z,60.90
2022-10-05T00:48:38.689Z,60.40
2022-10-05T00:51:24.008Z,61.20
2022-10-05T00:54:42.393Z,60.10
2022-10-05T00:57:59.883Z,61.00
2022-10-05T01:00:27.837Z,60.80
2022-10-05T01:03:26.185Z,60.10
2022-10-05T01:06:28.112Z,60.80
2022-10-05T01:09:08.950Z,61.00
2022-10-05T01:11:45.220Z,60.40
2022-10-05T01:14:30.032Z,60.50
2022-10-05T01:17:20.411Z,61.40
2022-10-05T01:20:10.110Z,60.90
2022-10-05T01:23:02.120Z,60.60
2022-10-05T01:26:05.584Z,61.10
2022-10-05T01:28:45.629Z,61.10
2022-10-05T01:31:26.042Z,60.80
2022-10-05T01:34:11.595Z,60.60
2022-10-05T01:37:01.649Z,60.90
2022-10-05T01:40:08.380Z,60.80
2022-10-05T01:42:53.652Z,61.00
2022-10-05T01:45:36.548Z,61.20
2022-10-05T01:48:21.231Z,60.80
2022-10-05T01:51:09.719Z,61.20
2022-10-05T01:54:03.595Z,61.30
2022-10-05T01:57:07.005Z,61.00
2022-10-05T02:00:13.944Z,61.40
2022-10-05T02:02:51.946Z,61.70
2022-10-05T02:05:35.071Z,61.10
2022-10-05T02:08:17.757Z,61.50
2022-10-05T02:11:11.304Z,61.70
2022-10-05T02:13:55.797Z,62.00
2022-10-05T02:16:40.978Z,61.40
2022-10-05T02:19:40.645Z,62.00
2022-10-05T02:22:15.022Z,62.30
2022-10-05T02:25:00.209Z,61.30
2022-10-05T02:28:07.989Z,61.70
2022-10-05T02:30:45.340Z,62.20
2022-10-05T02:33:32.894Z,61.60
2022-10-05T02:36:42.645Z,61.90
2022-10-05T02:39:52.382Z,62.20
2022-10-05T02:43:09.071Z,62.20
2022-10-05T02:46:21.883Z,62.50
2022-10-05T02:49:22.251Z,61.60
2022-10-05T02:52:12.051Z,62.30
2022-10-05T02:55:53.405Z,62.40
2022-10-05T02:58:29.145Z,62.60
2022-10-05T03:01:16.969Z,61.80
2022-10-05T03:04:04.995Z,61.90
2022-10-05T03:07:02.946Z,62.10
2022-10-05T03:09:45.125Z,62.10
2022-10-05T03:12:47.483Z,62.00
2022-10-05T03:15:50.518Z,62.60
2022-10-05T03:18:59.207Z,62.90
2022-10-05T03:21:47.008Z,62.60
2022-10-05T03:24:37.522Z,62.80
2022-10-05T03:27:23.174Z,62.30
2022-10-05T03:30:18.294Z,63.00
2022-10-05T03:33:21.311Z,62.80
2022-10-05T03:36:11.501Z,63.10
2022-10-05T03:39:12.356Z,63.00
2022-10-05T03:42:14.404Z,63.10
2022-10-05T03:45:09.265Z,63.30
2022-10-05T03:48:18.495Z,62.90
2022-10-05T03:51:22.772Z,62.70
2022-10-05T03:53:57.378Z,63.40
2022-10-05T03:56:38.460Z,62.70
2022-10-05T03:59:53.017Z,63.20
2022-10-05T04:02:29.215Z,63.70
2022-10-05T04:05:09.099Z,63.00
2022-10-05T04:08:00.220Z,63.10
2022-10-05T04:10:42.126Z,63.80
2022-10-05T04:13:30.074Z,62.90
2022-10-05T04:16:27.819Z,63.30
2022-10-05T04:19:34.038Z,64.00
2022-10-05T04:22:14.293Z,64.00
2022-10-05T04:24:51.669Z,64.00
2022-10-05T04:27:31.671Z,63.60
2022-10-05T04:30:18.337Z,63.70
2022-10-05T04:32:59.557Z,64.60
2022-10-05T04:35:55.801Z,63.80
2022-10-05T04:38:48.692Z,64.70
2022-10-05T04:41:40.204Z,63.80
2022-10-05T04:44:28.541Z,64.10
2022-10-05T04:47:50.539Z,64.90
2022-10-05T04:50:36.767Z,64.40
2022-10-05T04:53:15.022Z,64.60
2022-10-05T04:56:24.292Z,64.90
2022-10-05T04:59:25.250Z,65.30
2022-10-05T05:02:20.799Z,64.70
2022-10-05T05:05:15.388Z,64.60
2022-10-05T05:08:11.859Z,64.30
2022-10-05T05:10:57.362Z,64.90
2022-10-05T05:13:48.331Z,65.20
2022-10-05T05:16:33.040Z,65.10
2022-10-05T05:19:17.089Z,64.50
2022-10-05T05:22:28.913Z,65.00
2022-10-05T05:25:30.381Z,65.40
2022-10-05T05:28:08.266Z,65.20
2022-10-05T05:31:13.089Z,65.20
2022-10-05T05:33:45.208Z,65.00
2022-10-05T05:36:31.468Z,64.30
2022-10-05T05:39:07.238Z,65.20
2022-10-05T05:42:08.758Z,64.50
2022-10-05T05:44:54.329Z,65.30
2022-10-05T05:47:28.341Z,65.20
2022-10-05T05:50:50.347Z,64.80
2022-10-05T05:53:39.259Z,65.50
2022-10-05T05:56:25.043Z,64.50
2022-10-05T05:59:28.459Z,65.20
2022-10-05T06:02:21.371Z,65.00
2022-10-05T06:05:02.969Z,65.20
2022-10-05T06:07:37.744Z,64.90
2022-10-05T06:10:17.903Z,64.50
2022-10-05T06:12:52.335Z,65.30
2022-10-05T06:16:05.900Z,64.70
2022-10-05T06:18:33.218Z,65.20
2022-10-05T06:21:13.899Z,64.60
2022-10-05T06:23:40.655Z,64.80
2022-10-05T06:27:04.378Z,64.80
2022-10-05T06:30:04.796Z,65.60
2022-10-05T06:32:50.720Z,65.80
2022-10-05T06:35:26.153Z,65.40
2022-10-05T06:38:15.039Z,65.00
2022-10-05T06:41:01.580Z,66.10
2022-10-05T06:43:43.589Z,65.50
2022-10-05T06:46:25.627Z,65.50
2022-10-05T06:49:09.072Z,65.50
2022-10-05T06:52:01.932Z,65.30
2022-10-05T06:55:02.161Z,65.30
2022-10-05T06:57:40.720Z,66.20
2022-10-05T07:00:29.269Z,65.30
2022-10-05T07:03:46.110Z,66.00
2022-10-05T07:06:25.232Z,65.70
2022-10-05T07:09:14.144Z,65.30
2022-10-05T07:12:30.802Z,65.20
2022-10-05T07:15:20.805Z,65.80
2022-10-05T07:18:07.913Z,65.80
2022-10-05T07:20:52.663Z,65.70
2022-10-05T07:23:44.486Z,65.60
2022-10-05T07:26:45.663Z,65.70
2022-10-05T07:29:58.879Z,65.70
2022-10-05T07:32:39.705Z,65.70
2022-10-05T07:35:45.893Z,65.50
2022-10-05T07:38:32.934Z,65.80
2022-10-05T07:41:31.155Z,65.60
2022-10-05T07:44:14.962Z,65.50
2022-10-05T07:46:53.315Z,65.90
2022-10-05T07:49:41.077Z,65.70
2022-10-05T07:52:35.836Z,66.00
2022-10-05T07:55:21.491Z,65.90
2022-10-05T07:58:29.900Z,65.90
2022-10-05T08:01:23.273Z,66.10
2022-10-05T08:04:14.626Z,65.80
2022-10-05T08:06:58.269Z,65.80
2022-10-05T08:09:31.225Z,65.70
2022-10-05T08:12:04.808Z,65.80
2022-10-05T08:15:11.734Z,65.60
2022-10-05T08:18:01.713Z,66.00
2022-10-05T08:20:53.104Z,65.80
2022-10-05T08:23:23.453Z,65.90
2022-10-05T08:26:05.157Z,65.60
2022-10-05T08:28:57.625Z,65.70
2022-10-05T08:31:41.171Z,66.20
2022-10-05T08:35:14.829Z,65.70
2022-10-05T08:37:48.973Z,66.00
2022-10-05T08:40:37.339Z,65.60
2022-10-05T08:43:18.076Z,66.00
2022-10-05T08:46:12.497Z,65.90
2022-10-05T08:49:06.459Z,65.70
2022-10-05T08:52:29.512Z,66.00
2022-10-05T08:55:29.226Z,66.30
2022-10-05T08:58:11.195Z,66.10
2022-10-05T09:01:12.611Z,65.80
2022-10-05T09:04:12.239Z,66.00
2022-10-05T09:07:05.317Z,66.00
2022-10-05T09:10:07.931Z,66.00
2022-10-05T09:13:39.343Z,65.70
2022-10-05T09:16:28.163Z,65.70
2022-10-05T09:19:24.053Z,65.60
2022-10-05T09:22:15.648Z,65.60
2022-10-05T09:24:58.049Z,65.80
2022-10-05T09:27:30.369Z,65.60
2022-10-05T09:30:44.323Z,65.60
2022-10-05T09:33:28.731Z,65.70
2022-10-05T09:36:15.126Z,65.60
2022-10-05T09:39:34.149Z,65.70
2022-10-05T09:42:24.319Z,65.70
2022-10-05T09:45:25.252Z,65.70
2022-10-05T09:48:39.334Z,65.50
2022-10-05T09:51:36.814Z,65.50
2022-10-05T09:54:43.565Z,65.30
2022-10-05T09:57:52.339Z,65.40
2022-10-05T10:01:03.634Z,65.30
2022-10-05T10:04:07.011Z,65.20
2022-10-05T10:07:04.472Z,65.30
2022-10-05T10:10:15.471Z,65.20
2022-10-05T10:12:47.918Z,65.20
2022-10-05T10:15:24.347Z,65.20
2022-10-05T10:18:46.623Z,65.50
2022-10-05T10:21:38.425Z,66.40
2022-10-05T10:24:50.939Z,65.70
2022-10-05T10:27:35.594Z,65.20
2022-10-05T10:30:27.693Z,64.80
2022-10-05T10:33:43.081Z,64.90
2022-10-05T10:36:56.656Z,64.90
2022-10-05T10:40:02.889Z,64.80
2022-10-05T10:43:00.123Z,65.00
2022-10-05T10:45:56.620Z,64.50
2022-10-05T10:48:29.391Z,63.70
2022-10-05T10:51:42.193Z,63.30
2022-10-05T10:54:24.826Z,63.10
2022-10-05T10:57:15.065Z,63.30
2022-10-05T11:00:17.395Z,62.70
2022-10-05T11:03:24.451Z,63.00
2022-10-05T11:06:17.917Z,61.70
2022-10-05T11:09:03.011Z,61.00
2022-10-05T11:11:58.409Z,60.30
2022-10-05T11:15:16.324Z,59.30
2022-10-05T11:18:15.449Z,59.70
2022-10-05T11:21:21.560Z,60.00
2022-10-05T11:24:12.793Z,60.70
2022-10-05T11:26:42.697Z,60.10
2022-10-05T11:30:06.454Z,60.10
2022-10-05T11:33:01.037Z,59.90
2022-10-05T11:35:49.173Z,60.00
2022-10-05T11:38:42.949Z,60.20
2022-10-05T11:41:46.974Z,60.20
2022-10-05T11:44:57.605Z,60.50
2022-10-05T11:47:52.055Z,60.90
2022-10-05T11:50:49.066Z,61.10
2022-10-05T11:54:00.648Z,60.90
2022-10-05T11:56:54.666Z,60.50
2022-10-05T11:59:45.750Z,60.30
2022-10-05T12:02:57.400Z,60.30
2022-10-05T12:06:17.330Z,60.40
2022-10-05T12:09:29.009Z,60.40
2022-10-05T12:12:27.103Z,60.80
2022-10-05T12:15:25.730Z,60.60
2022-10-05T12:18:39.102Z,60.10
2022-10-05T12:21:31.070Z,59.90
2022-10-05T12:24:28.170Z,60.00
2022-10-05T12:27:25.117Z,60.10
2022-10-05T12:30:15.702Z,60.30
2022-10-05T12:33:06.127Z,60.80
2022-10-05T12:35:49.222Z,60.40
2022-10-05T12:38:38.144Z,60.20
2022-10-05T12:41:24.260Z,60.30
2022-10-05T12:44:18.665Z,59.70
2022-10-05T12:47:23.723Z,58.90
2022-10-05T12:50:19.236Z,58.20
2022-10-05T12:52:50.621Z,58.30
2022-10-05T12:55:26.203Z,58.00
2022-10-05T12:58:21.967Z,57.60
2022-10-05T13:01:08.760Z,56.10
2022-10-05T13:04:03.491Z,55.80
2022-10-05T13:06:47.044Z,55.40
2022-10-05T13:09:36.666Z,55.40
2022-10-05T13:12:43.944Z,54.90
2022-10-05T13:15:47.177Z,53.10
2022-10-05T13:18:34.916Z,53.00
2022-10-05T13:21:18.713Z,52.70
2022-10-05T13:23:57.570Z,52.50
2022-10-05T13:26:48.429Z,52.60
2022-10-05T13:30:04.543Z,52.90
2022-10-05T13:32:43.367Z,52.90
2022-10-05T13:35:24.183Z,52.80
2022-10-05T13:38:09.491Z,52.50
2022-10-05T13:40:45.410Z,51.70
2022-10-05T13:43:43.845Z,52.30
2022-10-05T13:46:39.925Z,51.30
2022-10-05T13:49:29.432Z,51.20
2022-10-05T13:52:08.692Z,51.30
2022-10-05T13:55:06.861Z,51.20
2022-10-05T13:57:53.249Z,51.10
2022-10-05T14:00:27.862Z,50.70
2022-10-05T14:03:00.633Z,50.80
2022-10-05T14:05:32.899Z,50.70
2022-10-05T14:08:02.360Z,50.20
2022-10-05T14:10:45.911Z,50.00
2022-10-05T14:13:18.479Z,49.50
2022-10-05T14:16:04.781Z,49.50
2022-10-05T14:18:36.531Z,49.50
2022-10-05T14:21:15.461Z,49.00
2022-10-05T14:23:43.060Z,48.90
2022-10-05T14:26:35.405Z,48.80
2022-10-05T14:29:37.620Z,48.90
2022-10-05T14:32:15.995Z,49.00
2022-10-05T14:35:15.280Z,49.00
2022-10-05T14:37:56.300Z,48.70
2022-10-05T14:40:36.513Z,49.20
2022-10-05T14:43:35.481Z,49.40
2022-10-05T14:46:27.956Z,49.60
2022-10-05T14:49:24.084Z,49.80
2022-10-05T14:51:53.297Z,50.10
2022-10-05T14:54:55.505Z,50.30
2022-10-05T14:58:10.491Z,50.40
2022-10-05T15:00:59.689Z,50.70
2022-10-05T15:03:56.910Z,51.00
2022-10-05T15:07:28.452Z,51.20
2022-10-05T15:10:03.320Z,51.30
2022-10-05T15:12:40.504Z,51.50
2022-10-05T15:15:37.061Z,51.60
2022-10-05T15:18:39.994Z,51.70
2022-10-05T15:21:42.068Z,51.80
2022-10-05T15:24:22.015Z,52.10
2022-10-05T15:26:56.811Z,52.10
2022-10-05T15:29:38.634Z,52.20
2022-10-05T15:33:05.094Z,52.30
2022-10-05T15:36:04.189Z,52.60
2022-10-05T15:39:01.927Z,52.60
2022-10-05T15:42:00.277Z,52.70
2022-10-05T15:45:19.972Z,52.80
2022-10-05T15:48:17.399Z,52.80
2022-10-05T15:50:51.117Z,52.90
2022-10-05T15:53:33.269Z,53.10
2022-10-05T15:56:27.315Z,53.10
2022-10-05T15:59:42.121Z,53.10
2022-10-05T16:02:29.799Z,53.10
2022-10-05T16:05:44.663Z,53.20
2022-10-05T16:08:51.319Z,53.40
2022-10-05T16:12:05.535Z,53.40
2022-10-05T16:14:37.390Z,53.60
2022-10-05T16:17:28.740Z,53.60
2022-10-05T16:20:25.669Z,53.70
2022-10-05T16:23:23.011Z,53.90
2022-10-05T16:26:16.668Z,53.90
2022-10-05T16:29:06.814Z,54.10
2022-10-05T16:32:11.376Z,54.10
2022-10-05T16:34:56.259Z,54.20
2022-10-05T16:38:24.908Z,54.50
2022-10-05T16:41:07.950Z,54.50
2022-10-05T16:44:06.203Z,54.80
2022-10-05T16:46:59.147Z,54.90
2022-10-05T16:49:53.621Z,54.90
2022-10-05T16:52:27.871Z,55.10
2022-10-05T16:55:04.826Z,55.10
2022-10-05T16:57:42.985Z,55.20
2022-10-05T17:00:23.508Z,55.30
2022-10-05T17:03:05.206Z,55.60
2022-10-05T17:05:55.620Z,55.70
2022-10-05T17:08:53.479Z,55.50
2022-10-05T17:11:38.703Z,55.90
2022-10-05T17:14:28.816Z,55.70
2022-10-05T17:17:25.139Z,56.00
2022-10-05T17:20:42.997Z,56.40
2022-10-05T17:23:33.660Z,56.50
2022-10-05T17:27:07.079Z,56.80
2022-10-05T17:29:52.216Z,56.70
2022-10-05T17:32:20.977Z,56.80
2022-10-05T17:35:02.581Z,56.50
2022-10-05T17:38:05.999Z,57.10
2022-10-05T17:40:40.911Z,57.20
2022-10-05T17:43:18.881Z,56.90
2022-10-05T17:45:45.900Z,57.20
2022-10-05T17:49:07.618Z,57.00
2022-10-05T17:52:12.799Z,57.70
2022-10-05T17:55:03.827Z,57.20
2022-10-05T17:57:36.695Z,57.60
2022-10-05T18:00:33.442Z,57.30
2022-10-05T18:03:20.141Z,57.70
2022-10-05T18:06:10.009Z,57.50
2022-10-05T18:08:40.170Z,57.70
2022-10-05T18:11:17.297Z,57.70
2022-10-05T18:13:50.196Z,58.10
2022-10-05T18:16:57.588Z,58.10
2022-10-05T18:19:25.033Z,58.60
2022-10-05T18:22:15.443Z,58.10
2022-10-05T18:25:05.712Z,58.70
2022-10-05T18:27:50.974Z,58.80
2022-10-05T18:30:24.842Z,59.10
2022-10-05T18:33:27.103Z,58.50
2022-10-05T18:36:13.058Z,58.60
2022-10-05T18:38:52.890Z,58.60
2022-10-05T18:41:32.633Z,58.60
2022-10-05T18:44:18.529Z,58.70
2022-10-05T18:47:16.698Z,58.40
2022-10-05T18:50:12.981Z,58.50
2022-10-05T18:53:02.559Z,58.50
2022-10-05T18:55:35.200Z,58.70
2022-10-05T18:58:28.416Z,58.60
2022-10-05T19:01:53.914Z,58.40
2022-10-05T19:04:42.479Z,58.60
2022-10-05T19:07:32.065Z,58.50
2022-10-05T19:10:19.793Z,58.50
2022-10-05T19:13:23.401Z,58.50
2022-10-05T19:16:37.513Z,58.40
2022-10-05T19:19:29.528Z,58.30
2022-10-05T19:22:20.246Z,58.30
2022-10-05T19:25:22.987Z,58.20
2022-10-05T19:27:55.233Z,58.30
2022-10-05T19:30:33.570Z,58.20
2022-10-05T19:33:38.740Z,58.20
2022-10-05T19:36:29.531Z,58.20
2022-10-05T19:39:45.219Z,58.20
2022-10-05T19:42:37.021Z,58.10
2022-10-05T19:45:27.995Z,58.00
2022-10-05T19:48:13.760Z,58.00
2022-10-05T19:51:00.298Z,57.90
2022-10-05T19:53:37.746Z,58.60
2022-10-05T19:56:31.016Z,57.90
2022-10-05T19:59:13.954Z,57.90
2022-10-05T20:01:53.541Z,57.80
2022-10-05T20:04:47.474Z,57.80
2022-10-05T20:07:18.159Z,57.90
2022-10-05T20:10:08.607Z,57.90
2022-10-05T20:12:57.436Z,58.60
2022-10-05T20:15:53.165Z,58.00
2022-10-05T20:19:00.825Z,58.00
2022-10-05T20:21:51.904Z,58.10
2022-10-05T20:24:28.283Z,58.10
2022-10-05T20:27:05.626Z,58.00
2022-10-05T20:29:39.239Z,58.20
2022-10-05T20:32:14.220Z,58.10
2022-10-05T20:34:47.228Z,58.10
2022-10-05T20:37:20.038Z,58.10
2022-10-05T20:39:51.366Z,58.20
2022-10-05T20:42:22.916Z,58.20
2022-10-05T20:44:54.299Z,58.20
2022-10-05T20:47:26.826Z,58.10
2022-10-05T20:49:56.053Z,58.20
2022-10-05T20:52:28.603Z,58.20
2022-10-05T20:54:58.061Z,58.30
2022-10-05T20:57:29.915Z,58.30
2022-10-05T20:59:56.752Z,58.30
2022-10-05T21:02:25.977Z,58.30
2022-10-05T21:04:58.021Z,58.40
2022-10-05T21:07:27.189Z,58.40
2022-10-05T21:09:56.074Z,58.40
2022-10-05T21:12:25.302Z,58.40
2022-10-05T21:14:52.610Z,58.40
2022-10-05T21:17:21.858Z,58.50
2022-10-05T21:19:48.816Z,58.60
2022-10-05T21:22:17.828Z,58.60
2022-10-05T21:24:47.222Z,58.60
2022-10-05T21:27:20.817Z,58.70
2022-10-05T21:29:52.167Z,58.80
2022-10-05T21:32:18.897Z,58.90
2022-10-05T21:34:47.722Z,58.80
2022-10-05T21:37:15.320Z,58.90
2022-10-05T21:39:45.661Z,59.00
2022-10-05T21:42:15.015Z,59.00
2022-10-05T21:44:41.837Z,59.00
2022-10-05T21:47:14.088Z,59.10
2022-10-05T21:49:46.708Z,59.10
2022-10-05T21:52:13.537Z,59.10
2022-10-05T21:54:45.135Z,59.10
2022-10-05T21:57:12.907Z,59.20
2022-10-05T21:59:43.255Z,59.30
2022-10-05T22:02:10.075Z,59.40
2022-10-05T22:04:36.884Z,59.30
2022-10-05T22:07:22.513Z,59.30
2022-10-05T22:09:51.469Z,59.50
2022-10-05T22:12:22.252Z,59.50
2022-10-05T22:14:51.381Z,59.50
2022-10-05T22:17:31.742Z,59.50
2022-10-05T22:20:06.912Z,59.90
2022-10-05T22:22:35.921Z,59.70
2022-10-05T22:25:05.152Z,59.70
2022-10-05T22:27:38.034Z,59.80
2022-10-05T22:30:08.414Z,59.90
2022-10-05T22:32:35.152Z,59.90
2022-10-05T22:35:09.121Z,59.90
2022-10-05T22:37:38.168Z,60.10
2022-10-05T22:40:11.143Z,60.10
2022-10-05T22:42:40.443Z,60.20
2022-10-05T22:45:14.050Z,60.20
2022-10-05T22:47:42.206Z,60.20
2022-10-05T22:50:09.471Z,60.30
2022-10-05T22:52:38.830Z,60.40
2022-10-05T22:55:11.018Z,60.40
2022-10-05T22:57:41.749Z,60.50
2022-10-05T23:00:14.116Z,60.60
2022-10-05T23:02:43.905Z,60.60
2022-10-05T23:05:13.300Z,60.60
2022-10-05T23:07:46.621Z,60.70
2022-10-05T23:10:17.846Z,60.80
2022-10-05T23:13:00.379Z,60.90
2022-10-05T23:15:27.887Z,60.90
2022-10-05T23:17:56.089Z,60.90
2022-10-05T23:20:24.605Z,61.00
2022-10-05T23:22:58.552Z,61.10
2022-10-05T23:25:28.333Z,61.10
2022-10-05T23:27:57.714Z,61.20
2022-10-05T23:30:26.900Z,61.30
2022-10-05T23:32:53.666Z,61.30
2022-10-05T23:35:22.773Z,62.00
2022-10-05T23:37:49.472Z,61.50
2022-10-05T23:40:16.411Z,61.50
2022-10-05T23:42:43.162Z,61.50
2022-10-05T23:45:11.812Z,61.50
2022-10-05T23:47:42.398Z,61.60
2022-10-05T23:50:09.876Z,61.70
2022-10-05T23:52:39.761Z,61.80
2022-10-05T23:55:16.877Z,61.90
2022-10-05T23:57:45.871Z,62.10
